sensor_id;sensor_type;location;lat;lon;timestamp;temperature;humidity
20594;DHT22;10455;48.732;10.266;2022-12-11T00:03:05;-1.00;99.90
20594;DHT22;10455;48.732;10.266;2022-12-11T00:08:10;-1.00;99.90
20594;DHT22;10455;48.732;10.266;2022-12-11T00:13:12;-1.00;99.90
20594;DHT22;10455;48.732;10.266;2022-12-11T00:18:14;-1.00;99.90
20594;DHT22;10455;48.732;10.266;2022-12-11T00:23:17;-1.00;99.90
20594;DHT22;10455;48.732;10.266;2022-12-11T00:28:19;-0.80;99.90
20594;DHT22;10455;48.732;10.266;2022-12-11T00:33:21;-0.50;99.90
20594;DHT22;10455;48.732;10.266;2022-12-11T00:38:24;-0.60;99.90
20594;DHT22;10455;48.732;10.266;2022-12-11T00:43:26;-0.70;99.90
20594;DHT22;10455;48.732;10.266;2022-12-11T00:48:28;-0.70;99.90
20594;DHT22;10455;48.732;10.266;2022-12-11T00:53:31;-0.70;99.90
20594;DHT22;10455;48.732;10.266;2022-12-11T00:58:33;-0.80;99.90
20594;DHT22;10455;48.732;10.266;2022-12-11T01:03:35;-0.60;99.90
20594;DHT22;10455;48.732;10.266;2022-12-11T01:08:39;-0.60;99.90
20594;DHT22;10455;48.732;10.266;2022-12-11T01:13:41;-0.60;99.90
20594;DHT22;10455;48.732;10.266;2022-12-11T01:18:43;-0.70;99.90
20594;DHT22;10455;48.732;10.266;2022-12-11T01:23:48;-0.70;99.90
20594;DHT22;10455;48.732;10.266;2022-12-11T01:28:51;-0.60;99.90
20594;DHT22;10455;48.732;10.266;2022-12-11T01:33:53;-0.60;99.90
20594;DHT22;10455;48.732;10.266;2022-12-11T01:38:56;-0.60;99.90
20594;DHT22;10455;48.732;10.266;2022-12-11T01:44:01;-0.70;99.90
20594;DHT22;10455;48.732;10.266;2022-12-11T01:49:06;-0.60;99.90
20594;DHT22;10455;48.732;10.266;2022-12-11T01:54:11;-0.50;99.90
20594;DHT22;10455;48.732;10.266;2022-12-11T01:59:17;-0.50;99.90
20594;DHT22;10455;48.732;10.266;2022-12-11T02:04:19;-0.40;99.90
20594;DHT22;10455;48.732;10.266;2022-12-11T02:09:24;-0.50;99.90
20594;DHT22;10455;48.732;10.266;2022-12-11T02:14:32;-0.70;99.90
20594;DHT22;10455;48.732;10.266;2022-12-11T02:19:47;-0.80;99.90
20594;DHT22;10455;48.732;10.266;2022-12-11T02:25:01;-1.00;99.90
20594;DHT22;10455;48.732;10.266;2022-12-11T02:30:07;-1.00;99.90
20594;DHT22;10455;48.732;10.266;2022-12-11T02:35:14;-1.00;99.90
20594;DHT22;10455;48.732;10.266;2022-12-11T02:40:21;-1.10;99.90
20594;DHT22;10455;48.732;10.266;2022-12-11T02:45:26;-1.00;99.90
20594;DHT22;10455;48.732;10.266;2022-12-11T02:50:29;-1.10;99.90
20594;DHT22;10455;48.732;10.266;2022-12-11T02:55:31;-1.00;99.90
20594;DHT22;10455;48.732;10.266;2022-12-11T03:00:36;-1.10;99.90
20594;DHT22;10455;48.732;10.266;2022-12-11T03:05:38;-1.10;99.90
20594;DHT22;10455;48.732;10.266;2022-12-11T03:10:41;-0.90;99.90
20594;DHT22;10455;48.732;10.266;2022-12-11T03:15:52;-0.90;99.90
20594;DHT22;10455;48.732;10.266;2022-12-11T03:21:02;-1.10;99.90
20594;DHT22;10455;48.732;10.266;2022-12-11T03:26:09;-0.90;99.90
20594;DHT22;10455;48.732;10.266;2022-12-11T03:31:17;-1.00;99.90
20594;DHT22;10455;48.732;10.266;2022-12-11T03:36:24;-0.90;99.90
20594;DHT22;10455;48.732;10.266;2022-12-11T03:41:28;-1.00;99.90
20594;DHT22;10455;48.732;10.266;2022-12-11T03:46:35;-1.20;99.90
20594;DHT22;10455;48.732;10.266;2022-12-11T03:51:38;-1.00;99.90
20594;DHT22;10455;48.732;10.266;2022-12-11T03:56:42;-1.10;99.90
20594;DHT22;10455;48.732;10.266;2022-12-11T04:01:47;-1.20;99.90
20594;DHT22;10455;48.732;10.266;2022-12-11T04:06:50;-1.20;99.90
20594;DHT22;10455;48.732;10.266;2022-12-11T04:11:52;-1.30;99.90
20594;DHT22;10455;48.732;10.266;2022-12-11T04:16:55;-1.60;99.90
20594;DHT22;10455;48.732;10.266;2022-12-11T04:21:57;-1.80;99.90
20594;DHT22;10455;48.732;10.266;2022-12-11T04:27:17;-2.00;99.90
20594;DHT22;10455;48.732;10.266;2022-12-11T04:32:41;-2.20;99.90
20594;DHT22;10455;48.732;10.266;2022-12-11T04:37:43;-2.40;99.90
20594;DHT22;10455;48.732;10.266;2022-12-11T04:42:45;-2.70;99.90
20594;DHT22;10455;48.732;10.266;2022-12-11T04:47:48;-2.90;99.90
20594;DHT22;10455;48.732;10.266;2022-12-11T04:52:53;-3.00;99.90
20594;DHT22;10455;48.732;10.266;2022-12-11T04:57:55;-3.20;99.90
20594;DHT22;10455;48.732;10.266;2022-12-11T05:02:58;-3.10;99.90
20594;DHT22;10455;48.732;10.266;2022-12-11T05:08:00;-3.10;99.90
20594;DHT22;10455;48.732;10.266;2022-12-11T05:13:02;-3.00;99.90
20594;DHT22;10455;48.732;10.266;2022-12-11T05:18:06;-3.00;99.90
20594;DHT22;10455;48.732;10.266;2022-12-11T05:23:08;-2.90;99.90
20594;DHT22;10455;48.732;10.266;2022-12-11T05:28:10;-2.90;99.90
20594;DHT22;10455;48.732;10.266;2022-12-11T05:33:13;-3.00;99.90
20594;DHT22;10455;48.732;10.266;2022-12-11T05:38:15;-2.80;99.90
20594;DHT22;10455;48.732;10.266;2022-12-11T05:43:17;-2.50;99.90
20594;DHT22;10455;48.732;10.266;2022-12-11T05:48:20;-2.50;99.90
20594;DHT22;10455;48.732;10.266;2022-12-11T05:53:22;-2.40;99.90
20594;DHT22;10455;48.732;10.266;2022-12-11T05:58:23;-2.20;99.90
20594;DHT22;10455;48.732;10.266;2022-12-11T06:03:27;-2.10;99.90
20594;DHT22;10455;48.732;10.266;2022-12-11T06:08:29;-2.10;99.90
20594;DHT22;10455;48.732;10.266;2022-12-11T06:13:31;-2.30;99.90
20594;DHT22;10455;48.732;10.266;2022-12-11T06:18:36;-2.20;99.90
20594;DHT22;10455;48.732;10.266;2022-12-11T06:23:39;-2.20;99.90
20594;DHT22;10455;48.732;10.266;2022-12-11T06:28:41;-2.10;99.90
20594;DHT22;10455;48.732;10.266;2022-12-11T06:33:44;-2.10;99.90
20594;DHT22;10455;48.732;10.266;2022-12-11T06:38:47;-2.20;99.90
20594;DHT22;10455;48.732;10.266;2022-12-11T06:43:49;-2.20;99.90
20594;DHT22;10455;48.732;10.266;2022-12-11T06:48:52;-2.10;99.90
20594;DHT22;10455;48.732;10.266;2022-12-11T06:53:55;-2.00;99.90
20594;DHT22;10455;48.732;10.266;2022-12-11T06:58:57;-1.90;99.90
20594;DHT22;10455;48.732;10.266;2022-12-11T07:04:00;-2.00;99.90
20594;DHT22;10455;48.732;10.266;2022-12-11T07:09:03;-2.10;99.90
20594;DHT22;10455;48.732;10.266;2022-12-11T07:14:05;-2.20;99.90
20594;DHT22;10455;48.732;10.266;2022-12-11T07:19:08;-2.30;99.90
20594;DHT22;10455;48.732;10.266;2022-12-11T07:24:10;-2.00;99.90
20594;DHT22;10455;48.732;10.266;2022-12-11T07:29:12;-1.50;99.90
20594;DHT22;10455;48.732;10.266;2022-12-11T07:34:16;-1.40;99.90
20594;DHT22;10455;48.732;10.266;2022-12-11T07:39:18;-1.50;99.90
20594;DHT22;10455;48.732;10.266;2022-12-11T07:44:20;-1.40;99.90
20594;DHT22;10455;48.732;10.266;2022-12-11T07:49:23;-1.30;99.90
20594;DHT22;10455;48.732;10.266;2022-12-11T07:54:25;-1.30;99.90
20594;DHT22;10455;48.732;10.266;2022-12-11T07:59:27;-1.40;99.90
20594;DHT22;10455;48.732;10.266;2022-12-11T08:04:30;-1.30;99.90
20594;DHT22;10455;48.732;10.266;2022-12-11T08:09:32;-1.20;99.90
20594;DHT22;10455;48.732;10.266;2022-12-11T08:14:34;-0.90;99.90
20594;DHT22;10455;48.732;10.266;2022-12-11T08:19:37;-0.70;99.90
20594;DHT22;10455;48.732;10.266;2022-12-11T08:24:39;-1.10;99.90
20594;DHT22;10455;48.732;10.266;2022-12-11T08:29:41;-0.80;99.90
20594;DHT22;10455;48.732;10.266;2022-12-11T08:34:44;-0.60;99.90
20594;DHT22;10455;48.732;10.266;2022-12-11T08:39:46;-0.10;99.90
20594;DHT22;10455;48.732;10.266;2022-12-11T08:44:48;0.20;99.90
20594;DHT22;10455;48.732;10.266;2022-12-11T08:49:52;-0.10;99.90
20594;DHT22;10455;48.732;10.266;2022-12-11T08:54:54;0.50;99.90
20594;DHT22;10455;48.732;10.266;2022-12-11T08:59:56;1.70;99.90
20594;DHT22;10455;48.732;10.266;2022-12-11T09:04:59;2.20;99.90
20594;DHT22;10455;48.732;10.266;2022-12-11T09:10:01;2.30;99.90
20594;DHT22;10455;48.732;10.266;2022-12-11T09:20:08;3.10;99.90
20594;DHT22;10455;48.732;10.266;2022-12-11T09:25:10;2.60;99.90
20594;DHT22;10455;48.732;10.266;2022-12-11T09:30:13;3.00;99.90
20594;DHT22;10455;48.732;10.266;2022-12-11T09:35:16;3.00;99.90
20594;DHT22;10455;48.732;10.266;2022-12-11T09:40:18;4.10;99.90
20594;DHT22;10455;48.732;10.266;2022-12-11T09:45:20;6.90;99.90
20594;DHT22;10455;48.732;10.266;2022-12-11T09:50:26;9.10;99.90
20594;DHT22;10455;48.732;10.266;2022-12-11T09:55:34;8.00;99.90
20594;DHT22;10455;48.732;10.266;2022-12-11T10:00:43;8.30;99.90
20594;DHT22;10455;48.732;10.266;2022-12-11T10:05:55;6.70;99.90
20594;DHT22;10455;48.732;10.266;2022-12-11T10:11:12;4.30;99.90
20594;DHT22;10455;48.732;10.266;2022-12-11T10:16:29;3.20;99.90
20594;DHT22;10455;48.732;10.266;2022-12-11T10:21:39;2.40;99.90
20594;DHT22;10455;48.732;10.266;2022-12-11T10:26:41;2.20;99.90
20594;DHT22;10455;48.732;10.266;2022-12-11T10:31:47;2.60;99.90
20594;DHT22;10455;48.732;10.266;2022-12-11T10:36:53;2.40;99.90
20594;DHT22;10455;48.732;10.266;2022-12-11T10:41:55;2.10;99.90
20594;DHT22;10455;48.732;10.266;2022-12-11T10:47:03;2.00;99.90
20594;DHT22;10455;48.732;10.266;2022-12-11T10:52:12;2.10;99.90
20594;DHT22;10455;48.732;10.266;2022-12-11T10:57:26;2.10;99.90
20594;DHT22;10455;48.732;10.266;2022-12-11T11:02:30;2.50;99.90
20594;DHT22;10455;48.732;10.266;2022-12-11T11:07:34;2.50;99.90
20594;DHT22;10455;48.732;10.266;2022-12-11T11:12:38;2.70;99.90
20594;DHT22;10455;48.732;10.266;2022-12-11T11:17:43;2.80;99.90
20594;DHT22;10455;48.732;10.266;2022-12-11T11:22:50;2.90;99.90
20594;DHT22;10455;48.732;10.266;2022-12-11T11:27:54;3.30;99.90
20594;DHT22;10455;48.732;10.266;2022-12-11T11:32:58;3.80;99.90
20594;DHT22;10455;48.732;10.266;2022-12-11T11:38:10;3.70;99.90
20594;DHT22;10455;48.732;10.266;2022-12-11T11:43:18;3.30;99.90
20594;DHT22;10455;48.732;10.266;2022-12-11T11:48:34;2.80;99.90
20594;DHT22;10455;48.732;10.266;2022-12-11T11:53:38;2.50;99.90
20594;DHT22;10455;48.732;10.266;2022-12-11T11:58:44;2.50;99.90
20594;DHT22;10455;48.732;10.266;2022-12-11T12:03:48;2.20;99.90
20594;DHT22;10455;48.732;10.266;2022-12-11T12:08:59;2.30;99.90
20594;DHT22;10455;48.732;10.266;2022-12-11T12:14:11;1.60;99.90
20594;DHT22;10455;48.732;10.266;2022-12-11T12:19:23;1.50;99.90
20594;DHT22;10455;48.732;10.266;2022-12-11T12:24:35;1.20;99.90
20594;DHT22;10455;48.732;10.266;2022-12-11T12:29:46;1.20;99.90
20594;DHT22;10455;48.732;10.266;2022-12-11T12:35:06;1.60;99.90
20594;DHT22;10455;48.732;10.266;2022-12-11T12:40:16;2.20;99.90
20594;DHT22;10455;48.732;10.266;2022-12-11T12:45:24;2.20;99.90
20594;DHT22;10455;48.732;10.266;2022-12-11T12:50:36;1.80;99.90
20594;DHT22;10455;48.732;10.266;2022-12-11T12:55:40;1.60;99.90
20594;DHT22;10455;48.732;10.266;2022-12-11T13:00:43;1.40;99.90
20594;DHT22;10455;48.732;10.266;2022-12-11T13:05:55;1.30;99.90
20594;DHT22;10455;48.732;10.266;2022-12-11T13:11:02;1.00;99.90
20594;DHT22;10455;48.732;10.266;2022-12-11T13:16:23;1.00;99.90
20594;DHT22;10455;48.732;10.266;2022-12-11T13:21:28;0.80;99.90
20594;DHT22;10455;48.732;10.266;2022-12-11T13:26:33;0.60;99.90
20594;DHT22;10455;48.732;10.266;2022-12-11T13:31:35;1.00;99.90
20594;DHT22;10455;48.732;10.266;2022-12-11T13:36:39;1.40;99.90
20594;DHT22;10455;48.732;10.266;2022-12-11T13:41:45;1.30;99.90
20594;DHT22;10455;48.732;10.266;2022-12-11T13:46:49;0.90;99.90
20594;DHT22;10455;48.732;10.266;2022-12-11T13:51:56;1.00;99.90
20594;DHT22;10455;48.732;10.266;2022-12-11T13:57:02;1.00;99.90
20594;DHT22;10455;48.732;10.266;2022-12-11T14:02:14;1.10;99.90
20594;DHT22;10455;48.732;10.266;2022-12-11T14:07:23;1.50;99.90
20594;DHT22;10455;48.732;10.266;2022-12-11T14:12:28;1.70;99.90
20594;DHT22;10455;48.732;10.266;2022-12-11T14:17:32;1.80;99.90
20594;DHT22;10455;48.732;10.266;2022-12-11T14:22:35;1.50;99.90
20594;DHT22;10455;48.732;10.266;2022-12-11T14:27:46;1.40;99.90
20594;DHT22;10455;48.732;10.266;2022-12-11T14:32:49;1.20;99.90
20594;DHT22;10455;48.732;10.266;2022-12-11T14:37:52;0.70;99.90
20594;DHT22;10455;48.732;10.266;2022-12-11T14:42:58;0.30;99.90
20594;DHT22;10455;48.732;10.266;2022-12-11T14:48:06;0.30;99.90
20594;DHT22;10455;48.732;10.266;2022-12-11T14:53:14;-0.10;99.90
20594;DHT22;10455;48.732;10.266;2022-12-11T14:58:20;-0.40;99.90
20594;DHT22;10455;48.732;10.266;2022-12-11T15:03:23;-0.70;99.90
20594;DHT22;10455;48.732;10.266;2022-12-11T15:08:27;-1.10;99.90
20594;DHT22;10455;48.732;10.266;2022-12-11T15:13:31;-1.40;99.90
20594;DHT22;10455;48.732;10.266;2022-12-11T15:18:35;-1.60;99.90
20594;DHT22;10455;48.732;10.266;2022-12-11T15:23:49;-1.70;99.90
20594;DHT22;10455;48.732;10.266;2022-12-11T15:28:59;-1.60;99.90
20594;DHT22;10455;48.732;10.266;2022-12-11T15:34:02;-1.70;99.90
20594;DHT22;10455;48.732;10.266;2022-12-11T15:39:04;-1.80;99.90
20594;DHT22;10455;48.732;10.266;2022-12-11T15:44:15;-1.90;99.90
20594;DHT22;10455;48.732;10.266;2022-12-11T15:49:18;-2.00;99.90
20594;DHT22;10455;48.732;10.266;2022-12-11T15:54:23;-2.00;99.90
20594;DHT22;10455;48.732;10.266;2022-12-11T15:59:27;-2.20;99.90
20594;DHT22;10455;48.732;10.266;2022-12-11T16:04:28;-2.20;99.90
20594;DHT22;10455;48.732;10.266;2022-12-11T16:09:30;-2.50;99.90
20594;DHT22;10455;48.732;10.266;2022-12-11T16:14:35;-2.80;99.90
20594;DHT22;10455;48.732;10.266;2022-12-11T16:19:39;-3.00;99.90
20594;DHT22;10455;48.732;10.266;2022-12-11T16:24:41;-3.00;99.90
20594;DHT22;10455;48.732;10.266;2022-12-11T16:29:45;-3.10;99.90
20594;DHT22;10455;48.732;10.266;2022-12-11T16:34:47;-3.10;99.90
20594;DHT22;10455;48.732;10.266;2022-12-11T16:39:49;-3.20;99.90
20594;DHT22;10455;48.732;10.266;2022-12-11T16:44:52;-2.90;99.90
20594;DHT22;10455;48.732;10.266;2022-12-11T16:49:54;-2.60;99.90
20594;DHT22;10455;48.732;10.266;2022-12-11T16:54:58;-2.50;99.90
20594;DHT22;10455;48.732;10.266;2022-12-11T17:00:01;-2.60;99.90
20594;DHT22;10455;48.732;10.266;2022-12-11T17:05:04;-2.70;99.90
20594;DHT22;10455;48.732;10.266;2022-12-11T17:10:07;-2.90;99.90
20594;DHT22;10455;48.732;10.266;2022-12-11T17:15:10;-3.20;99.90
20594;DHT22;10455;48.732;10.266;2022-12-11T17:20:12;-3.60;99.90
20594;DHT22;10455;48.732;10.266;2022-12-11T17:25:14;-3.80;99.90
20594;DHT22;10455;48.732;10.266;2022-12-11T17:30:23;-4.00;99.90
20594;DHT22;10455;48.732;10.266;2022-12-11T17:35:24;-4.10;99.90
20594;DHT22;10455;48.732;10.266;2022-12-11T17:40:27;-4.20;99.90
20594;DHT22;10455;48.732;10.266;2022-12-11T17:45:30;-4.40;99.90
20594;DHT22;10455;48.732;10.266;2022-12-11T17:50:32;-4.50;99.90
20594;DHT22;10455;48.732;10.266;2022-12-11T17:55:34;-4.60;99.90
20594;DHT22;10455;48.732;10.266;2022-12-11T18:00:38;-4.60;99.90
20594;DHT22;10455;48.732;10.266;2022-12-11T18:05:41;-4.70;99.90
20594;DHT22;10455;48.732;10.266;2022-12-11T18:10:44;-4.40;99.90
20594;DHT22;10455;48.732;10.266;2022-12-11T18:15:58;-4.10;99.90
20594;DHT22;10455;48.732;10.266;2022-12-11T18:21:00;-3.70;99.90
20594;DHT22;10455;48.732;10.266;2022-12-11T18:26:02;-3.20;99.90
20594;DHT22;10455;48.732;10.266;2022-12-11T18:31:06;-2.90;99.90
20594;DHT22;10455;48.732;10.266;2022-12-11T18:36:10;-2.80;99.90
20594;DHT22;10455;48.732;10.266;2022-12-11T18:41:12;-2.70;99.90
20594;DHT22;10455;48.732;10.266;2022-12-11T18:46:18;-2.70;99.90
20594;DHT22;10455;48.732;10.266;2022-12-11T18:51:21;-2.70;99.90
20594;DHT22;10455;48.732;10.266;2022-12-11T18:56:23;-2.80;99.90
20594;DHT22;10455;48.732;10.266;2022-12-11T19:01:27;-2.70;99.90
20594;DHT22;10455;48.732;10.266;2022-12-11T19:06:29;-2.70;99.90
20594;DHT22;10455;48.732;10.266;2022-12-11T19:11:34;-2.60;99.90
20594;DHT22;10455;48.732;10.266;2022-12-11T19:16:40;-2.40;99.90
20594;DHT22;10455;48.732;10.266;2022-12-11T19:21:43;-2.20;99.90
20594;DHT22;10455;48.732;10.266;2022-12-11T19:26:45;-2.10;99.90
20594;DHT22;10455;48.732;10.266;2022-12-11T19:31:50;-2.00;99.90
20594;DHT22;10455;48.732;10.266;2022-12-11T19:36:52;-1.90;99.90
20594;DHT22;10455;48.732;10.266;2022-12-11T19:41:54;-1.90;99.90
20594;DHT22;10455;48.732;10.266;2022-12-11T19:46:57;-1.80;99.90
20594;DHT22;10455;48.732;10.266;2022-12-11T19:51:59;-1.70;99.90
20594;DHT22;10455;48.732;10.266;2022-12-11T19:57:01;-1.70;99.90
20594;DHT22;10455;48.732;10.266;2022-12-11T20:02:05;-1.80;99.90
20594;DHT22;10455;48.732;10.266;2022-12-11T20:07:07;-1.90;99.90
20594;DHT22;10455;48.732;10.266;2022-12-11T20:12:09;-2.00;99.90
20594;DHT22;10455;48.732;10.266;2022-12-11T20:17:12;-2.00;99.90
20594;DHT22;10455;48.732;10.266;2022-12-11T20:22:14;-1.90;99.90
20594;DHT22;10455;48.732;10.266;2022-12-11T20:27:16;-1.90;99.90
20594;DHT22;10455;48.732;10.266;2022-12-11T20:32:19;-1.90;99.90
20594;DHT22;10455;48.732;10.266;2022-12-11T20:37:21;-1.90;99.90
20594;DHT22;10455;48.732;10.266;2022-12-11T20:42:23;-1.80;99.90
20594;DHT22;10455;48.732;10.266;2022-12-11T20:47:26;-1.90;99.90
20594;DHT22;10455;48.732;10.266;2022-12-11T20:52:28;-2.00;99.90
20594;DHT22;10455;48.732;10.266;2022-12-11T20:57:30;-2.20;99.90
20594;DHT22;10455;48.732;10.266;2022-12-11T21:02:34;-2.50;99.90
20594;DHT22;10455;48.732;10.266;2022-12-11T21:07:35;-2.70;99.90
20594;DHT22;10455;48.732;10.266;2022-12-11T21:12:37;-2.70;99.90
20594;DHT22;10455;48.732;10.266;2022-12-11T21:17:41;-2.80;99.90
20594;DHT22;10455;48.732;10.266;2022-12-11T21:22:42;-2.90;99.90
20594;DHT22;10455;48.732;10.266;2022-12-11T21:27:44;-3.00;99.90
20594;DHT22;10455;48.732;10.266;2022-12-11T21:32:48;-2.90;99.90
20594;DHT22;10455;48.732;10.266;2022-12-11T21:37:49;-2.80;99.90
20594;DHT22;10455;48.732;10.266;2022-12-11T21:42:51;-2.60;99.90
20594;DHT22;10455;48.732;10.266;2022-12-11T21:47:55;-2.40;99.90
20594;DHT22;10455;48.732;10.266;2022-12-11T21:52:56;-2.30;99.90
20594;DHT22;10455;48.732;10.266;2022-12-11T21:57:58;-2.10;99.90
20594;DHT22;10455;48.732;10.266;2022-12-11T22:03:02;-2.10;99.90
20594;DHT22;10455;48.732;10.266;2022-12-11T22:08:04;-2.10;99.90
20594;DHT22;10455;48.732;10.266;2022-12-11T22:13:06;-2.00;99.90
20594;DHT22;10455;48.732;10.266;2022-12-11T22:18:09;-1.80;99.90
20594;DHT22;10455;48.732;10.266;2022-12-11T22:23:12;-1.80;99.90
20594;DHT22;10455;48.732;10.266;2022-12-11T22:28:14;-1.70;99.90
20594;DHT22;10455;48.732;10.266;2022-12-11T22:33:17;-1.70;99.90
20594;DHT22;10455;48.732;10.266;2022-12-11T22:38:19;-1.60;99.90
20594;DHT22;10455;48.732;10.266;2022-12-11T22:43:21;-1.90;99.90
20594;DHT22;10455;48.732;10.266;2022-12-11T22:48:24;-2.00;99.90
20594;DHT22;10455;48.732;10.266;2022-12-11T22:53:26;-2.50;99.90
20594;DHT22;10455;48.732;10.266;2022-12-11T22:58:28;-3.10;99.90
20594;DHT22;10455;48.732;10.266;2022-12-11T23:03:32;-3.40;99.90
20594;DHT22;10455;48.732;10.266;2022-12-11T23:08:34;-3.30;99.90
20594;DHT22;10455;48.732;10.266;2022-12-11T23:13:36;-3.20;99.90
20594;DHT22;10455;48.732;10.266;2022-12-11T23:18:40;-3.20;99.90
20594;DHT22;10455;48.732;10.266;2022-12-11T23:23:42;-3.30;99.90
20594;DHT22;10455;48.732;10.266;2022-12-11T23:28:44;-3.10;99.90
20594;DHT22;10455;48.732;10.266;2022-12-11T23:33:48;-2.90;99.90
20594;DHT22;10455;48.732;10.266;2022-12-11T23:38:50;-2.70;99.90
20594;DHT22;10455;48.732;10.266;2022-12-11T23:43:52;-2.70;99.90
20594;DHT22;10455;48.732;10.266;2022-12-11T23:48:55;-2.60;99.90
20594;DHT22;10455;48.732;10.266;2022-12-11T23:53:57;-2.60;99.90
20594;DHT22;10455;48.732;10.266;2022-12-11T23:58:59;-2.70;99.90
